Maysville, Oklahoma
Current Conditions -  °F | °C
As of 5:15 AM on Wednesday 26 Nov 2014 (Local Time) from KPVJ Reporting Station
Clear Clear  
Wind Chill: 35°   Ceiling: Unl
Heat Index: 39°   Visibility: 10mi
Dew Point: 29°   Wind: 6mph
Humidity: 66%   Direction: 260°W
Pressure: 30"   Gusts: NA
Location:  34.82°N, 97.41°W
Report Text: KPVJ 261115Z AUTO 26005KT 10SM CLR 04/M02 A3000 RMK AO2 T00401018
Loading
Personal Weather Stations






























Interactive Weather Map New forecast layout! Learn more

10-Day Weather Forecast

Advertisements
Track Severe Weather on mobile